sensor_id;sensor_type;location;lat;lon;timestamp;pressure;altitude;pressure_sealevel;temperature;humidity
62524;BME280;53689;56.878;60.672;2023-08-24T00:00:27;96940.63;;;22.31;32.02
62524;BME280;53689;56.878;60.672;2023-08-24T00:02:54;96951.50;;;22.37;31.91
62524;BME280;53689;56.878;60.672;2023-08-24T00:05:22;96957.59;;;22.32;31.67
62524;BME280;53689;56.878;60.672;2023-08-24T00:07:49;96955.50;;;22.34;32.64
62524;BME280;53689;56.878;60.672;2023-08-24T00:10:18;96959.50;;;22.31;32.57
62524;BME280;53689;56.878;60.672;2023-08-24T00:12:46;96956.78;;;22.31;31.87
62524;BME280;53689;56.878;60.672;2023-08-24T00:15:14;96955.38;;;22.41;32.68
62524;BME280;53689;56.878;60.672;2023-08-24T00:17:41;96965.09;;;22.42;32.32
62524;BME280;53689;56.878;60.672;2023-08-24T00:20:09;96955.47;;;22.46;32.65
62524;BME280;53689;56.878;60.672;2023-08-24T00:22:37;96961.47;;;22.48;32.41
62524;BME280;53689;56.878;60.672;2023-08-24T00:25:06;96966.88;;;22.36;32.65
62524;BME280;53689;56.878;60.672;2023-08-24T00:27:36;96959.59;;;22.25;31.31
62524;BME280;53689;56.878;60.672;2023-08-24T00:30:05;96970.28;;;22.31;32.25
62524;BME280;53689;56.878;60.672;2023-08-24T00:32:33;96977.09;;;22.34;32.61
62524;BME280;53689;56.878;60.672;2023-08-24T00:35:00;96970.13;;;22.26;32.27
62524;BME280;53689;56.878;60.672;2023-08-24T00:37:28;96971.91;;;22.33;32.47
62524;BME280;53689;56.878;60.672;2023-08-24T00:39:56;96967.22;;;22.40;32.51
62524;BME280;53689;56.878;60.672;2023-08-24T00:42:23;96967.56;;;22.31;32.38
62524;BME280;53689;56.878;60.672;2023-08-24T00:44:52;96970.38;;;22.37;32.27
62524;BME280;53689;56.878;60.672;2023-08-24T00:47:20;96973.56;;;22.34;32.80
62524;BME280;53689;56.878;60.672;2023-08-24T00:49:48;96972.38;;;22.29;31.62
62524;BME280;53689;56.878;60.672;2023-08-24T00:52:16;96966.63;;;22.26;32.15
62524;BME280;53689;56.878;60.672;2023-08-24T00:54:44;96970.47;;;21.94;32.27
62524;BME280;53689;56.878;60.672;2023-08-24T00:57:12;96972.00;;;22.02;31.67
62524;BME280;53689;56.878;60.672;2023-08-24T00:59:40;96966.41;;;22.15;32.54
62524;BME280;53689;56.878;60.672;2023-08-24T01:02:10;96969.91;;;22.28;32.43
62524;BME280;53689;56.878;60.672;2023-08-24T01:04:41;96971.91;;;22.33;32.60
62524;BME280;53689;56.878;60.672;2023-08-24T01:07:08;96976.47;;;22.32;32.14
62524;BME280;53689;56.878;60.672;2023-08-24T01:09:36;96978.47;;;22.37;32.34
62524;BME280;53689;56.878;60.672;2023-08-24T01:12:11;96975.28;;;22.16;31.90
62524;BME280;53689;56.878;60.672;2023-08-24T01:14:49;96980.81;;;22.21;31.78
62524;BME280;53689;56.878;60.672;2023-08-24T01:17:22;96980.91;;;22.26;32.27
62524;BME280;53689;56.878;60.672;2023-08-24T01:19:51;96985.50;;;22.14;33.29
62524;BME280;53689;56.878;60.672;2023-08-24T01:22:29;96985.50;;;22.14;31.79
62524;BME280;53689;56.878;60.672;2023-08-24T01:25:06;96993.31;;;22.03;32.58
62524;BME280;53689;56.878;60.672;2023-08-24T01:27:36;96996.13;;;22.09;32.48
62524;BME280;53689;56.878;60.672;2023-08-24T01:30:06;97002.06;;;21.87;32.33
62524;BME280;53689;56.878;60.672;2023-08-24T01:32:36;97003.53;;;21.03;31.33
62524;BME280;53689;56.878;60.672;2023-08-24T01:35:08;97008.84;;;20.91;31.60
62524;BME280;53689;56.878;60.672;2023-08-24T01:37:37;97016.28;;;20.70;32.01
62524;BME280;53689;56.878;60.672;2023-08-24T01:40:07;97022.69;;;20.25;32.40
62524;BME280;53689;56.878;60.672;2023-08-24T01:42:43;97014.47;;;20.45;33.29
62524;BME280;53689;56.878;60.672;2023-08-24T01:45:12;97026.13;;;20.58;32.10
62524;BME280;53689;56.878;60.672;2023-08-24T01:47:43;97025.34;;;20.50;33.21
62524;BME280;53689;56.878;60.672;2023-08-24T01:50:11;97019.63;;;20.65;33.46
62524;BME280;53689;56.878;60.672;2023-08-24T01:52:40;97008.25;;;20.89;33.52
62524;BME280;53689;56.878;60.672;2023-08-24T01:55:09;97008.00;;;20.72;32.48
62524;BME280;53689;56.878;60.672;2023-08-24T01:57:38;97002.25;;;20.68;34.57
62524;BME280;53689;56.878;60.672;2023-08-24T02:00:06;97001.97;;;20.32;32.88
62524;BME280;53689;56.878;60.672;2023-08-24T02:02:39;96998.09;;;20.21;33.59
62524;BME280;53689;56.878;60.672;2023-08-24T02:05:08;96998.50;;;20.25;34.16
62524;BME280;53689;56.878;60.672;2023-08-24T02:07:36;97003.53;;;20.15;34.63
62524;BME280;53689;56.878;60.672;2023-08-24T02:10:04;97007.53;;;20.31;34.97
62524;BME280;53689;56.878;60.672;2023-08-24T02:12:31;97002.00;;;20.51;34.54
62524;BME280;53689;56.878;60.672;2023-08-24T02:15:00;97005.94;;;20.48;33.82
62524;BME280;53689;56.878;60.672;2023-08-24T02:17:28;97010.13;;;20.63;34.56
62524;BME280;53689;56.878;60.672;2023-08-24T02:19:56;97011.50;;;20.54;34.05
62524;BME280;53689;56.878;60.672;2023-08-24T02:22:23;97011.66;;;20.33;33.83
62524;BME280;53689;56.878;60.672;2023-08-24T02:24:51;97008.31;;;20.13;33.66
62524;BME280;53689;56.878;60.672;2023-08-24T02:27:19;97008.59;;;20.04;34.65
62524;BME280;53689;56.878;60.672;2023-08-24T02:29:47;97008.66;;;20.23;33.59
62524;BME280;53689;56.878;60.672;2023-08-24T02:32:17;97007.69;;;20.10;34.42
62524;BME280;53689;56.878;60.672;2023-08-24T02:34:45;97015.09;;;20.15;33.11
62524;BME280;53689;56.878;60.672;2023-08-24T02:37:14;97011.75;;;19.88;33.91
62524;BME280;53689;56.878;60.672;2023-08-24T02:39:41;97005.59;;;19.80;35.81
62524;BME280;53689;56.878;60.672;2023-08-24T02:42:10;97005.78;;;20.18;35.00
62524;BME280;53689;56.878;60.672;2023-08-24T02:44:37;97004.13;;;20.17;35.17
62524;BME280;53689;56.878;60.672;2023-08-24T02:47:05;97002.31;;;20.10;34.88
62524;BME280;53689;56.878;60.672;2023-08-24T02:49:35;97005.66;;;20.06;34.96
62524;BME280;53689;56.878;60.672;2023-08-24T02:52:03;97000.69;;;20.09;35.09
62524;BME280;53689;56.878;60.672;2023-08-24T02:54:31;97002.22;;;19.60;34.69
62524;BME280;53689;56.878;60.672;2023-08-24T02:57:00;97004.84;;;20.05;35.93
62524;BME280;53689;56.878;60.672;2023-08-24T02:59:27;97012.25;;;19.78;36.44
62524;BME280;53689;56.878;60.672;2023-08-24T03:01:55;97012.38;;;19.90;35.12
62524;BME280;53689;56.878;60.672;2023-08-24T03:04:25;97015.25;;;19.56;35.60
62524;BME280;53689;56.878;60.672;2023-08-24T03:06:55;97017.84;;;19.76;36.25
62524;BME280;53689;56.878;60.672;2023-08-24T03:09:23;97019.97;;;20.00;34.85
62524;BME280;53689;56.878;60.672;2023-08-24T03:11:51;97011.53;;;19.96;35.47
62524;BME280;53689;56.878;60.672;2023-08-24T03:14:18;97022.94;;;19.85;35.42
62524;BME280;53689;56.878;60.672;2023-08-24T03:16:46;97015.69;;;19.85;35.38
62524;BME280;53689;56.878;60.672;2023-08-24T03:19:14;97016.19;;;19.75;36.25
62524;BME280;53689;56.878;60.672;2023-08-24T03:21:41;97013.56;;;19.62;36.40
62524;BME280;53689;56.878;60.672;2023-08-24T03:24:11;97021.25;;;20.22;35.65
62524;BME280;53689;56.878;60.672;2023-08-24T03:26:39;97018.69;;;20.09;35.74
62524;BME280;53689;56.878;60.672;2023-08-24T03:29:08;97019.53;;;20.03;35.30
62524;BME280;53689;56.878;60.672;2023-08-24T03:31:36;97013.78;;;20.24;35.68
62524;BME280;53689;56.878;60.672;2023-08-24T03:34:04;97015.13;;;21.22;35.17
62524;BME280;53689;56.878;60.672;2023-08-24T03:36:34;97020.38;;;21.66;34.61
62524;BME280;53689;56.878;60.672;2023-08-24T03:39:02;97017.69;;;21.66;34.47
62524;BME280;53689;56.878;60.672;2023-08-24T03:41:32;97015.13;;;21.71;34.04
62524;BME280;53689;56.878;60.672;2023-08-24T03:44:01;97020.13;;;21.86;33.84
62524;BME280;53689;56.878;60.672;2023-08-24T03:46:29;97016.00;;;21.84;34.06
62524;BME280;53689;56.878;60.672;2023-08-24T03:48:58;97023.31;;;21.95;34.06
62524;BME280;53689;56.878;60.672;2023-08-24T03:51:28;97015.06;;;21.90;33.71
62524;BME280;53689;56.878;60.672;2023-08-24T03:53:56;97017.06;;;21.83;34.11
62524;BME280;53689;56.878;60.672;2023-08-24T03:56:26;97022.56;;;21.88;34.22
62524;BME280;53689;56.878;60.672;2023-08-24T03:58:55;97022.47;;;21.83;34.05
62524;BME280;53689;56.878;60.672;2023-08-24T04:01:23;97024.34;;;21.94;33.83
62524;BME280;53689;56.878;60.672;2023-08-24T04:03:52;97026.91;;;21.89;33.85
62524;BME280;53689;56.878;60.672;2023-08-24T04:06:20;97035.19;;;21.75;33.62
62524;BME280;53689;56.878;60.672;2023-08-24T04:08:49;97028.13;;;20.88;34.50
62524;BME280;53689;56.878;60.672;2023-08-24T04:11:16;97039.19;;;21.17;34.71
62524;BME280;53689;56.878;60.672;2023-08-24T04:13:46;97028.84;;;21.70;33.79
62524;BME280;53689;56.878;60.672;2023-08-24T04:16:16;97031.84;;;21.92;33.70
62524;BME280;53689;56.878;60.672;2023-08-24T04:18:43;97034.09;;;21.95;33.58
62524;BME280;53689;56.878;60.672;2023-08-24T04:21:11;97028.09;;;21.93;33.64
62524;BME280;53689;56.878;60.672;2023-08-24T04:23:40;97028.94;;;22.06;32.91
62524;BME280;53689;56.878;60.672;2023-08-24T04:26:08;97023.22;;;22.14;32.74
62524;BME280;53689;56.878;60.672;2023-08-24T04:28:37;97018.63;;;22.14;33.13
62524;BME280;53689;56.878;60.672;2023-08-24T04:31:06;97022.88;;;22.10;33.76
62524;BME280;53689;56.878;60.672;2023-08-24T04:33:35;97022.03;;;22.10;33.35
62524;BME280;53689;56.878;60.672;2023-08-24T04:36:03;97027.59;;;21.84;33.85
62524;BME280;53689;56.878;60.672;2023-08-24T04:38:33;97024.06;;;21.53;34.33
62524;BME280;53689;56.878;60.672;2023-08-24T04:41:02;97027.53;;;21.91;33.73
62524;BME280;53689;56.878;60.672;2023-08-24T04:43:30;97020.22;;;21.61;33.89
62524;BME280;53689;56.878;60.672;2023-08-24T04:45:58;97026.25;;;21.44;33.86
62524;BME280;53689;56.878;60.672;2023-08-24T04:48:26;97019.13;;;21.69;33.24
62524;BME280;53689;56.878;60.672;2023-08-24T04:50:56;97028.66;;;21.83;33.30
62524;BME280;53689;56.878;60.672;2023-08-24T04:53:24;97037.94;;;21.99;33.06
62524;BME280;53689;56.878;60.672;2023-08-24T04:55:52;97030.75;;;21.81;33.34
62524;BME280;53689;56.878;60.672;2023-08-24T04:58:20;97029.00;;;21.87;33.08
62524;BME280;53689;56.878;60.672;2023-08-24T05:00:48;97027.88;;;21.64;33.31
62524;BME280;53689;56.878;60.672;2023-08-24T05:03:16;97025.03;;;21.89;33.22
62524;BME280;53689;56.878;60.672;2023-08-24T05:05:45;97026.81;;;21.65;33.41
62524;BME280;53689;56.878;60.672;2023-08-24T05:08:14;97032.03;;;21.79;33.48
62524;BME280;53689;56.878;60.672;2023-08-24T05:10:42;97024.06;;;21.53;33.97
62524;BME280;53689;56.878;60.672;2023-08-24T05:13:09;97030.72;;;21.69;33.90
62524;BME280;53689;56.878;60.672;2023-08-24T05:15:37;97036.50;;;21.85;33.47
62524;BME280;53689;56.878;60.672;2023-08-24T05:18:05;97029.47;;;21.84;33.65
62524;BME280;53689;56.878;60.672;2023-08-24T05:20:32;97023.16;;;21.90;33.27
62524;BME280;53689;56.878;60.672;2023-08-24T05:23:00;97030.28;;;21.54;33.46
62524;BME280;53689;56.878;60.672;2023-08-24T05:25:30;97034.94;;;21.28;33.85
62524;BME280;53689;56.878;60.672;2023-08-24T05:27:57;97037.56;;;20.97;34.44
62524;BME280;53689;56.878;60.672;2023-08-24T05:30:26;97050.69;;;20.87;34.38
62524;BME280;53689;56.878;60.672;2023-08-24T05:32:53;97044.63;;;20.47;34.84
62524;BME280;53689;56.878;60.672;2023-08-24T05:35:21;97044.41;;;20.49;35.11
62524;BME280;53689;56.878;60.672;2023-08-24T05:37:49;97048.22;;;20.85;34.59
62524;BME280;53689;56.878;60.672;2023-08-24T05:40:17;97051.97;;;20.33;35.12
62524;BME280;53689;56.878;60.672;2023-08-24T05:42:46;97049.66;;;20.12;35.01
62524;BME280;53689;56.878;60.672;2023-08-24T05:45:14;97047.53;;;20.46;34.78
62524;BME280;53689;56.878;60.672;2023-08-24T05:47:42;97052.09;;;20.45;35.33
62524;BME280;53689;56.878;60.672;2023-08-24T05:50:10;97053.69;;;20.97;34.48
62524;BME280;53689;56.878;60.672;2023-08-24T05:52:38;97054.50;;;20.54;34.59
62524;BME280;53689;56.878;60.672;2023-08-24T05:55:07;97046.03;;;20.24;35.33
62524;BME280;53689;56.878;60.672;2023-08-24T05:57:35;97052.19;;;20.32;35.07
62524;BME280;53689;56.878;60.672;2023-08-24T06:00:05;97059.63;;;21.06;34.13
62524;BME280;53689;56.878;60.672;2023-08-24T06:02:39;97052.81;;;20.59;34.57
62524;BME280;53689;56.878;60.672;2023-08-24T06:05:07;97046.66;;;20.52;34.91
62524;BME280;53689;56.878;60.672;2023-08-24T06:07:35;97053.22;;;20.56;34.79
62524;BME280;53689;56.878;60.672;2023-08-24T06:10:04;97057.09;;;20.42;34.88
62524;BME280;53689;56.878;60.672;2023-08-24T06:12:32;97060.03;;;20.33;35.27
62524;BME280;53689;56.878;60.672;2023-08-24T06:14:59;97051.31;;;20.63;34.57
62524;BME280;53689;56.878;60.672;2023-08-24T06:17:28;97049.13;;;20.28;34.51
62524;BME280;53689;56.878;60.672;2023-08-24T06:19:56;97052.50;;;20.17;35.18
62524;BME280;53689;56.878;60.672;2023-08-24T06:22:24;97059.91;;;20.47;34.66
62524;BME280;53689;56.878;60.672;2023-08-24T06:24:51;97056.06;;;20.10;35.01
62524;BME280;53689;56.878;60.672;2023-08-24T06:27:19;97058.06;;;20.22;35.36
62524;BME280;53689;56.878;60.672;2023-08-24T06:29:47;97058.72;;;20.68;34.57
62524;BME280;53689;56.878;60.672;2023-08-24T06:32:14;97057.50;;;20.38;34.61
62524;BME280;53689;56.878;60.672;2023-08-24T06:34:44;97062.56;;;20.28;34.80
62524;BME280;53689;56.878;60.672;2023-08-24T06:37:13;97059.91;;;20.47;34.38
62524;BME280;53689;56.878;60.672;2023-08-24T06:39:40;97059.59;;;20.36;34.90
62524;BME280;53689;56.878;60.672;2023-08-24T06:42:08;97054.94;;;20.50;34.55
62524;BME280;53689;56.878;60.672;2023-08-24T06:44:37;97065.47;;;20.52;34.28
62524;BME280;53689;56.878;60.672;2023-08-24T06:47:04;97061.34;;;20.75;34.26
62524;BME280;53689;56.878;60.672;2023-08-24T06:49:32;97052.56;;;20.86;34.15
62524;BME280;53689;56.878;60.672;2023-08-24T06:52:02;97055.94;;;21.00;33.63
62524;BME280;53689;56.878;60.672;2023-08-24T06:54:29;97058.22;;;20.78;34.29
62524;BME280;53689;56.878;60.672;2023-08-24T06:56:57;97062.63;;;21.16;33.78
62524;BME280;53689;56.878;60.672;2023-08-24T06:59:24;97057.16;;;20.79;34.65
62524;BME280;53689;56.878;60.672;2023-08-24T07:01:52;97060.25;;;20.57;34.62
62524;BME280;53689;56.878;60.672;2023-08-24T07:04:20;97060.19;;;20.13;34.67
62524;BME280;53689;56.878;60.672;2023-08-24T07:06:48;97056.38;;;20.28;34.68
62524;BME280;53689;56.878;60.672;2023-08-24T07:09:17;97056.03;;;19.78;35.41
62524;BME280;53689;56.878;60.672;2023-08-24T07:11:45;97061.53;;;19.97;35.68
62524;BME280;53689;56.878;60.672;2023-08-24T07:14:14;97060.13;;;20.20;36.13
62524;BME280;53689;56.878;60.672;2023-08-24T07:16:42;97053.94;;;20.19;36.14
62524;BME280;53689;56.878;60.672;2023-08-24T07:19:10;97059.78;;;20.42;35.26
62524;BME280;53689;56.878;60.672;2023-08-24T07:21:37;97068.28;;;20.06;35.70
62524;BME280;53689;56.878;60.672;2023-08-24T07:24:05;97063.19;;;19.98;35.65
62524;BME280;53689;56.878;60.672;2023-08-24T07:26:34;97070.00;;;20.84;34.12
62524;BME280;53689;56.878;60.672;2023-08-24T07:29:02;97063.88;;;20.70;34.32
62524;BME280;53689;56.878;60.672;2023-08-24T07:31:30;97063.44;;;20.22;34.92
62524;BME280;53689;56.878;60.672;2023-08-24T07:33:57;97058.88;;;20.22;35.20
62524;BME280;53689;56.878;60.672;2023-08-24T07:36:25;97066.56;;;20.95;34.14
62524;BME280;53689;56.878;60.672;2023-08-24T07:38:53;97071.78;;;20.64;34.28
62524;BME280;53689;56.878;60.672;2023-08-24T07:41:21;97063.44;;;20.47;34.93
62524;BME280;53689;56.878;60.672;2023-08-24T07:43:50;97055.50;;;20.85;34.09
62524;BME280;53689;56.878;60.672;2023-08-24T07:46:17;97056.56;;;21.02;33.96
62524;BME280;53689;56.878;60.672;2023-08-24T07:48:46;97058.88;;;20.99;33.94
62524;BME280;53689;56.878;60.672;2023-08-24T07:51:14;97051.94;;;21.78;33.02
62524;BME280;53689;56.878;60.672;2023-08-24T07:53:42;97055.50;;;21.90;32.72
62524;BME280;53689;56.878;60.672;2023-08-24T07:56:10;97056.31;;;21.90;32.49
62524;BME280;53689;56.878;60.672;2023-08-24T07:58:38;97054.59;;;21.96;32.92
62524;BME280;53689;56.878;60.672;2023-08-24T08:01:06;97054.25;;;22.04;32.57
62524;BME280;53689;56.878;60.672;2023-08-24T08:03:35;97044.66;;;22.09;32.29
62524;BME280;53689;56.878;60.672;2023-08-24T08:06:03;97045.44;;;21.97;33.09
62524;BME280;53689;56.878;60.672;2023-08-24T08:08:30;97050.19;;;22.14;32.68
62524;BME280;53689;56.878;60.672;2023-08-24T08:10:59;97051.09;;;22.08;32.76
62524;BME280;53689;56.878;60.672;2023-08-24T08:13:27;97044.28;;;21.93;33.30
62524;BME280;53689;56.878;60.672;2023-08-24T08:16:01;97045.28;;;21.80;33.43
62524;BME280;53689;56.878;60.672;2023-08-24T08:18:30;97046.13;;;21.93;33.23
62524;BME280;53689;56.878;60.672;2023-08-24T08:20:59;97055.34;;;22.15;33.18
62524;BME280;53689;56.878;60.672;2023-08-24T08:23:26;97044.28;;;21.93;33.09
62524;BME280;53689;56.878;60.672;2023-08-24T08:25:54;97044.78;;;22.14;32.93
62524;BME280;53689;56.878;60.672;2023-08-24T08:28:22;97045.47;;;22.09;32.88
62524;BME280;53689;56.878;60.672;2023-08-24T08:30:50;97047.13;;;22.10;32.96
62524;BME280;53689;56.878;60.672;2023-08-24T08:33:18;97044.06;;;22.07;32.92
62524;BME280;53689;56.878;60.672;2023-08-24T08:35:47;97047.88;;;21.87;33.59
62524;BME280;53689;56.878;60.672;2023-08-24T08:38:14;97047.09;;;21.98;33.46
62524;BME280;53689;56.878;60.672;2023-08-24T08:40:43;97041.59;;;22.05;33.43
62524;BME280;53689;56.878;60.672;2023-08-24T08:43:11;97039.41;;;22.14;33.63
62524;BME280;53689;56.878;60.672;2023-08-24T08:45:39;97042.53;;;21.99;33.46
62524;BME280;53689;56.878;60.672;2023-08-24T08:48:07;97046.53;;;22.08;34.07
62524;BME280;53689;56.878;60.672;2023-08-24T08:50:36;97048.53;;;22.13;33.61
62524;BME280;53689;56.878;60.672;2023-08-24T08:53:05;97040.56;;;22.18;33.42
62524;BME280;53689;56.878;60.672;2023-08-24T08:55:33;97045.41;;;22.28;33.19
62524;BME280;53689;56.878;60.672;2023-08-24T08:58:02;97044.00;;;22.37;33.34
62524;BME280;53689;56.878;60.672;2023-08-24T09:00:30;97038.13;;;22.28;33.39
62524;BME280;53689;56.878;60.672;2023-08-24T09:02:59;97045.41;;;22.28;33.05
62524;BME280;53689;56.878;60.672;2023-08-24T09:05:28;97043.28;;;22.30;33.54
62524;BME280;53689;56.878;60.672;2023-08-24T09:07:55;97044.56;;;22.15;34.04
62524;BME280;53689;56.878;60.672;2023-08-24T09:10:25;97039.03;;;22.10;34.27
62524;BME280;53689;56.878;60.672;2023-08-24T09:12:56;97037.19;;;22.23;33.33
62524;BME280;53689;56.878;60.672;2023-08-24T09:15:27;97032.66;;;22.35;33.72
62524;BME280;53689;56.878;60.672;2023-08-24T09:17:57;97033.28;;;22.49;33.10
62524;BME280;53689;56.878;60.672;2023-08-24T09:20:27;97029.63;;;22.55;32.74
62524;BME280;53689;56.878;60.672;2023-08-24T09:22:59;97038.03;;;22.47;33.26
62524;BME280;53689;56.878;60.672;2023-08-24T09:25:29;97028.56;;;22.56;33.22
62524;BME280;53689;56.878;60.672;2023-08-24T09:27:56;97031.41;;;22.62;33.06
62524;BME280;53689;56.878;60.672;2023-08-24T09:30:29;97023.88;;;22.52;32.74
62524;BME280;53689;56.878;60.672;2023-08-24T09:33:01;97025.75;;;22.75;33.10
62524;BME280;53689;56.878;60.672;2023-08-24T09:35:28;97028.44;;;22.99;32.00
62524;BME280;53689;56.878;60.672;2023-08-24T09:37:56;97024.22;;;22.67;32.53
62524;BME280;53689;56.878;60.672;2023-08-24T09:40:28;97027.09;;;23.13;31.24
62524;BME280;53689;56.878;60.672;2023-08-24T09:42:56;97028.53;;;23.04;31.31
62524;BME280;53689;56.878;60.672;2023-08-24T09:45:24;97024.69;;;22.76;32.70
62524;BME280;53689;56.878;60.672;2023-08-24T09:47:51;97019.91;;;22.78;32.45
62524;BME280;53689;56.878;60.672;2023-08-24T09:50:19;97026.94;;;22.79;31.77
62524;BME280;53689;56.878;60.672;2023-08-24T09:52:48;97020.59;;;22.73;33.00
62524;BME280;53689;56.878;60.672;2023-08-24T09:55:20;97025.41;;;22.71;32.77
62524;BME280;53689;56.878;60.672;2023-08-24T09:57:52;97031.81;;;22.47;33.05
62524;BME280;53689;56.878;60.672;2023-08-24T10:00:20;97022.81;;;22.77;32.30
62524;BME280;53689;56.878;60.672;2023-08-24T10:02:49;97019.84;;;23.02;31.82
62524;BME280;53689;56.878;60.672;2023-08-24T10:05:21;97027.25;;;22.95;31.31
62524;BME280;53689;56.878;60.672;2023-08-24T10:07:55;97024.47;;;22.90;31.63
62524;BME280;53689;56.878;60.672;2023-08-24T10:10:25;97030.06;;;23.00;31.98
62524;BME280;53689;56.878;60.672;2023-08-24T10:12:58;97031.22;;;23.28;31.43
62524;BME280;53689;56.878;60.672;2023-08-24T10:15:26;97034.28;;;23.08;32.57
62524;BME280;53689;56.878;60.672;2023-08-24T10:17:55;97039.38;;;22.68;33.67
62524;BME280;53689;56.878;60.672;2023-08-24T10:20:24;97032.06;;;22.93;31.87
62524;BME280;53689;56.878;60.672;2023-08-24T10:22:53;97034.50;;;23.18;32.05
62524;BME280;53689;56.878;60.672;2023-08-24T10:25:21;97029.44;;;23.34;30.95
62524;BME280;53689;56.878;60.672;2023-08-24T10:27:50;97031.00;;;23.18;32.08
62524;BME280;53689;56.878;60.672;2023-08-24T10:30:20;97022.69;;;22.71;33.08
62524;BME280;53689;56.878;60.672;2023-08-24T10:32:49;97027.09;;;23.25;31.57
62524;BME280;53689;56.878;60.672;2023-08-24T10:35:20;97016.28;;;23.25;31.47
62524;BME280;53689;56.878;60.672;2023-08-24T10:37:52;97021.53;;;22.91;32.37
62524;BME280;53689;56.878;60.672;2023-08-24T10:40:42;97024.19;;;23.03;32.46
62524;BME280;53689;56.878;60.672;2023-08-24T10:43:11;97033.91;;;23.16;31.14
62524;BME280;53689;56.878;60.672;2023-08-24T10:45:58;97035.84;;;22.92;31.96
62524;BME280;53689;56.878;60.672;2023-08-24T10:48:28;97035.75;;;22.75;32.61
62524;BME280;53689;56.878;60.672;2023-08-24T10:51:17;97029.84;;;22.66;32.59
62524;BME280;53689;56.878;60.672;2023-08-24T10:53:46;97033.47;;;23.07;31.24
62524;BME280;53689;56.878;60.672;2023-08-24T10:56:16;97020.00;;;22.83;32.24
62524;BME280;53689;56.878;60.672;2023-08-24T10:58:46;97016.16;;;23.32;31.19
62524;BME280;53689;56.878;60.672;2023-08-24T11:01:18;97020.34;;;22.87;32.55
62524;BME280;53689;56.878;60.672;2023-08-24T11:03:49;97015.31;;;22.79;32.21
62524;BME280;53689;56.878;60.672;2023-08-24T11:06:19;97018.47;;;22.88;31.80
62524;BME280;53689;56.878;60.672;2023-08-24T11:08:47;97012.47;;;23.09;31.72
62524;BME280;53689;56.878;60.672;2023-08-24T11:11:18;97007.88;;;23.10;31.52
62524;BME280;53689;56.878;60.672;2023-08-24T11:14:14;97006.13;;;23.04;32.06
62524;BME280;53689;56.878;60.672;2023-08-24T11:16:46;97008.84;;;23.04;32.12
62524;BME280;53689;56.878;60.672;2023-08-24T11:19:14;97015.53;;;23.01;32.31
62524;BME280;53689;56.878;60.672;2023-08-24T11:21:45;97012.38;;;22.92;32.34
62524;BME280;53689;56.878;60.672;2023-08-24T11:24:14;97005.22;;;22.98;32.47
62524;BME280;53689;56.878;60.672;2023-08-24T11:26:43;97012.94;;;23.06;32.26
62524;BME280;53689;56.878;60.672;2023-08-24T11:29:12;96997.56;;;23.07;32.02
62524;BME280;53689;56.878;60.672;2023-08-24T11:31:40;97003.34;;;23.27;31.71
62524;BME280;53689;56.878;60.672;2023-08-24T11:34:15;96998.69;;;23.23;32.26
62524;BME280;53689;56.878;60.672;2023-08-24T11:36:45;97005.97;;;23.22;31.91
62524;BME280;53689;56.878;60.672;2023-08-24T11:39:17;97008.91;;;23.21;32.05
62524;BME280;53689;56.878;60.672;2023-08-24T11:41:46;97004.06;;;23.23;31.88
62524;BME280;53689;56.878;60.672;2023-08-24T11:44:24;97000.72;;;23.16;32.83
62524;BME280;53689;56.878;60.672;2023-08-24T11:46:57;97006.47;;;23.19;32.91
62524;BME280;53689;56.878;60.672;2023-08-24T11:49:27;97006.56;;;23.12;32.67
62524;BME280;53689;56.878;60.672;2023-08-24T11:51:55;97001.78;;;23.14;32.66
62524;BME280;53689;56.878;60.672;2023-08-24T11:54:24;97004.78;;;23.18;32.46
62524;BME280;53689;56.878;60.672;2023-08-24T11:56:52;96998.81;;;23.16;32.75
62524;BME280;53689;56.878;60.672;2023-08-24T11:59:20;96996.06;;;22.99;33.05
62524;BME280;53689;56.878;60.672;2023-08-24T12:01:48;96999.53;;;23.11;32.84
62524;BME280;53689;56.878;60.672;2023-08-24T12:04:16;96994.81;;;23.19;33.09
62524;BME280;53689;56.878;60.672;2023-08-24T12:06:45;97000.50;;;23.05;33.04
62524;BME280;53689;56.878;60.672;2023-08-24T12:09:14;97006.47;;;23.07;32.51
62524;BME280;53689;56.878;60.672;2023-08-24T12:11:42;97000.22;;;23.19;32.89
62524;BME280;53689;56.878;60.672;2023-08-24T12:14:16;96993.69;;;23.14;32.80
62524;BME280;53689;56.878;60.672;2023-08-24T12:16:44;96989.09;;;23.15;32.29
62524;BME280;53689;56.878;60.672;2023-08-24T12:19:12;96990.16;;;23.14;33.58
62524;BME280;53689;56.878;60.672;2023-08-24T12:21:44;96994.53;;;22.91;32.84
62524;BME280;53689;56.878;60.672;2023-08-24T12:24:13;96991.72;;;22.86;33.42
62524;BME280;53689;56.878;60.672;2023-08-24T12:26:41;96984.75;;;23.02;34.80
62524;BME280;53689;56.878;60.672;2023-08-24T12:29:09;96991.22;;;23.01;33.41
62524;BME280;53689;56.878;60.672;2023-08-24T12:31:37;96991.97;;;23.25;32.72
62524;BME280;53689;56.878;60.672;2023-08-24T12:34:09;96993.22;;;22.94;32.86
62524;BME280;53689;56.878;60.672;2023-08-24T12:36:38;96981.00;;;23.03;32.52
62524;BME280;53689;56.878;60.672;2023-08-24T12:39:08;96989.00;;;23.10;33.08
62524;BME280;53689;56.878;60.672;2023-08-24T12:41:36;96989.66;;;23.17;32.39
62524;BME280;53689;56.878;60.672;2023-08-24T12:44:04;96996.94;;;23.17;32.39
62524;BME280;53689;56.878;60.672;2023-08-24T12:46:32;96990.19;;;23.43;31.66
62524;BME280;53689;56.878;60.672;2023-08-24T12:49:00;96997.38;;;23.25;32.42
62524;BME280;53689;56.878;60.672;2023-08-24T12:51:28;96998.44;;;23.24;31.92
62524;BME280;53689;56.878;60.672;2023-08-24T12:53:55;96996.22;;;23.33;31.75
62524;BME280;53689;56.878;60.672;2023-08-24T12:56:24;97000.09;;;23.25;32.25
62524;BME280;53689;56.878;60.672;2023-08-24T12:58:52;96996.47;;;23.20;32.92